Finlandia — OJPP — position and weather

sailwx.info

Track history (hours):
 
Tides and Currents Weather Stations Pressure Air Temp Water Temp Dewpoint Dewpoint Depression Visibility Wind Speed Wind Dir Waves Ship Positions

Finlandia

Last reported at 2017-Nov-25 04:00 UTC. Time now 2017-Nov-25 04:19 UTC.
Position N 60°01' E 024°55'.

Length 175 m; draft 7 m.

Type: Passenger vessel. MMSI: 230628000.

Date/timePositionNaut miles runAvg speedWind from/ knotsBaromVisibWave heightAir tempDewpointWater temp
2017-Nov-25 04:00N 60°01' E 024°55'713.8
2017-Nov-25 03:31N 59°55' E 024°52'612.0
2017-Nov-25 03:00N 59°49' E 024°51'4 7.4
2017-Nov-25 02:30N 59°45' E 024°54'3 5.3
2017-Nov-25 02:00N 59°43' E 024°57'510.9
2017-Nov-25 01:30N 59°41' E 024°47'4 8.1
2017-Nov-25 01:00N 59°38' E 024°42'4 7.2
2017-Nov-25 00:30N 59°34' E 024°42'4 9.0
2017-Nov-25 00:00N 59°30' E 024°46'3 6.4
2017-Nov-24 23:30N 59°27' E 024°46'0 0.4
2017-Nov-24 23:00N 59°27' E 024°46'1 1.2
2017-Nov-24 22:30N 59°27' E 024°47'917.1
2017-Nov-24 22:01N 59°35' E 024°40'1019.6
2017-Nov-24 21:30N 59°45' E 024°44'816.5
2017-Nov-24 21:00N 59°52' E 024°51'918.0
2017-Nov-24 20:31N 60°01' E 024°54'815.7
2017-Nov-24 20:01N 60°09' E 024°55'0 0.4
2017-Nov-24 19:29N 60°09' E 024°55'0 0.0
2017-Nov-24 19:00N 60°09' E 024°55'4 7.9
2017-Nov-24 18:30N 60°05' E 024°54'1019.8
2017-Nov-24 18:00N 59°55' E 024°53'1020.2
2017-Nov-24 17:30N 59°46' E 024°48'1020.3
2017-Nov-24 17:00N 59°36' E 024°41'918.5
2017-Nov-24 16:31N 59°27' E 024°47'1 1.3
2017-Nov-24 16:00N 59°27' E 024°46'0 0.0
2017-Nov-24 15:30N 59°27' E 024°46'816.3
2017-Nov-24 15:00N 59°34' E 024°41'1121.1
2017-Nov-24 14:30N 59°45' E 024°47'1020.1
2017-Nov-24 14:00N 59°54' E 024°52'1122.1
2017-Nov-24 13:30N 60°05' E 024°53'4 7.6
2017-Nov-24 13:00N 60°09' E 024°55'0 0.0
2017-Nov-24 12:28N 60°09' E 024°55'0 0.5
2017-Nov-24 12:00N 60°09' E 024°55'815.9
2017-Nov-24 11:31N 60°01' E 024°54'1326.7
2017-Nov-24 11:00N 59°48' E 024°45'1122.1
2017-Nov-24 10:31N 59°38' E 024°41'1121.6
2017-Nov-24 10:00N 59°27' E 024°47'1 1.2
2017-Nov-24 09:29N 59°27' E 024°46'0 0.0
2017-Nov-24 08:59N 59°27' E 024°46'4 8.5
2017-Nov-24 08:30N 59°31' E 024°44'918.0
2017-Nov-24 08:00N 59°40' E 024°43'1020.3
2017-Nov-24 07:31N 59°49' E 024°49'917.6
2017-Nov-24 07:00N 59°58' E 024°54'918.8
2017-Nov-24 06:30N 60°07' E 024°54'2 3.6
2017-Nov-24 05:59N 60°09' E 024°55'0 0.0
2017-Nov-24 05:29N 60°09' E 024°55'0 0.0
2017-Nov-24 04:59N 60°09' E 024°55'1 1.3
2017-Nov-24 04:31N 60°09' E 024°54'815.2
2017-Nov-24 04:01N 60°01' E 024°55'714.0
2017-Nov-24 03:31N 59°54' E 024°51'713.3
2017-Nov-24 03:01N 59°49' E 024°43'5 9.9
2017-Nov-24 02:30N 59°44' E 024°41'713.3
2017-Nov-24 02:01N 59°45' E 024°54'2 4.4
2017-Nov-24 01:31N 59°43' E 024°52'612.9
2017-Nov-24 01:00N 59°38' E 024°43'5 9.8
2017-Nov-24 00:31N 59°33' E 024°43'5 9.2
2017-Nov-24 00:00N 59°29' E 024°46'2 4.6
2017-Nov-23 23:31N 59°27' E 024°46'0 0.0
2017-Nov-23 23:00N 59°27' E 024°46'1 1.6
2017-Nov-23 22:31N 59°27' E 024°47'917.1
2017-Nov-23 22:00N 59°35' E 024°40'917.1
2017-Nov-23 21:30N 59°44' E 024°43'917.5
2017-Nov-23 21:00N 59°52' E 024°49'918.0
2017-Nov-23 20:30N 60°00' E 024°54'816.2
2017-Nov-23 20:00N 60°09' E 024°54'1 1.1
2017-Nov-23 19:29N 60°09' E 024°55'0 0.0
2017-Nov-23 19:01N 60°09' E 024°55'2 4.7
2017-Nov-23 18:30N 60°07' E 024°54'1020.3
2017-Nov-23 18:01N 59°57' E 024°54'1122.9
2017-Nov-23 17:31N 59°45' E 024°48'1122.4
2017-Nov-23 17:01N 59°35' E 024°42'816.2
2017-Nov-23 16:30N 59°27' E 024°46'0 0.5
2017-Nov-23 16:00N 59°27' E 024°46'0 0.0
2017-Nov-23 15:31N 59°27' E 024°46'714.8
2017-Nov-23 15:01N 59°34' E 024°42'1223.4
2017-Nov-23 14:31N 59°45' E 024°48'1224.8
2017-Nov-23 14:00N 59°57' E 024°53'1122.1
2017-Nov-23 13:30N 60°08' E 024°54'1 1.7
2017-Nov-23 12:59N 60°09' E 024°55'0 0.0
2017-Nov-23 12:29N 60°09' E 024°55'1 1.4
2017-Nov-23 12:00N 60°08' E 024°54'1019.2
2017-Nov-23 11:31N 59°59' E 024°54'1223.2
2017-Nov-23 11:01N 59°48' E 024°46'1223.2
2017-Nov-23 10:31N 59°37' E 024°41'1020.5
2017-Nov-23 10:00N 59°27' E 024°46'0 0.6
2017-Nov-23 09:29N 59°27' E 024°46'0 0.0
2017-Nov-23 08:59N 59°27' E 024°46'2 5.1
2017-Nov-23 08:31N 59°29' E 024°45'1121.4
2017-Nov-23 08:01N 59°39' E 024°40'1121.8
2017-Nov-23 07:30N 59°50' E 024°48'1121.3
2017-Nov-23 07:00N 59°60' E 024°54'917.7
2017-Nov-23 06:30N 60°09' E 024°55'0 0.7
2017-Nov-23 06:00N 60°09' E 024°55'0 0.0
2017-Nov-23 05:31N 60°09' E 024°55'0 0.0
2017-Nov-23 05:00N 60°09' E 024°55'1 1.0
2017-Nov-23 04:31N 60°09' E 024°54'713.9
2017-Nov-23 04:00N 60°02' E 024°55'611.8
2017-Nov-23 03:30N 59°56' E 024°52'4 8.0
2017-Nov-23 03:00N 59°52' E 024°50'4 8.1
2017-Nov-23 02:30N 59°48' E 024°47'4 8.5
2017-Nov-23 02:00N 59°45' E 024°43'4 8.4
2017-Nov-23 01:30N 59°41' E 024°41'4 8.6
2017-Nov-23 01:00N 59°36' E 024°41'4 8.3
2017-Nov-23 00:30N 59°32' E 024°44'4 8.8
2017-Nov-23 00:00N 59°28' E 024°46'1 3.0
2017-Nov-22 23:30N 59°27' E 024°46'0 0.0
2017-Nov-22 23:00N 59°27' E 024°46'1 1.4
2017-Nov-22 22:31N 59°27' E 024°47'816.0
2017-Nov-22 22:01N 59°34' E 024°41'917.8
2017-Nov-22 21:31N 59°43' E 024°42'918.7
2017-Nov-22 21:01N 59°52' E 024°49'918.8
2017-Nov-22 20:31N 60°01' E 024°54'815.5
2017-Nov-22 20:00N 60°09' E 024°55'0 0.5
2017-Nov-22 19:30N 60°09' E 024°55'  
2017-Nov-20 00:30N 60°09' E 024°55'0 0.0
2017-Nov-20 00:00N 60°09' E 024°55'0 0.0
2017-Nov-19 23:30N 60°09' E 024°55'0 0.0
2017-Nov-19 23:00N 60°09' E 024°55'0 0.0
2017-Nov-19 22:30N 60°09' E 024°55'0 0.0
2017-Nov-19 22:00N 60°09' E 024°55'0 0.0
2017-Nov-19 21:30N 60°09' E 024°55'0 0.0
2017-Nov-19 21:00N 60°09' E 024°55'0 0.0
2017-Nov-19 20:30N 60°09' E 024°55'0 0.0
2017-Nov-19 20:00N 60°09' E 024°55'0 0.0
2017-Nov-19 19:30N 60°09' E 024°55'0 0.0
2017-Nov-19 19:00N 60°09' E 024°55'4 8.4
2017-Nov-19 18:31N 60°05' E 024°54'1020.0
2017-Nov-19 18:00N 59°55' E 024°53'1020.9
2017-Nov-19 17:30N 59°45' E 024°49'1019.5
2017-Nov-19 17:01N 59°36' E 024°41'918.3
2017-Nov-19 16:30N 59°27' E 024°46'0 0.4
2017-Nov-19 15:58N 59°27' E 024°46'0 0.0
2017-Nov-19 15:29N 59°27' E 024°46'816.1
2017-Nov-19 15:01N 59°34' E 024°41'918.2
2017-Nov-19 14:31N 59°43' E 024°47'1223.1
2017-Nov-19 14:01N 59°54' E 024°54'1223.1
2017-Nov-19 13:30N 60°05' E 024°58'4 8.7
2017-Nov-19 13:00N 60°09' E 024°55'0 0.0
2017-Nov-19 12:30N 60°09' E 024°55'0 1.0
2017-Nov-19 12:01N 60°09' E 024°55'1019.1
2017-Nov-19 11:31N 59°59' E 024°54'1122.4
2017-Nov-19 11:01N 59°48' E 024°50'1325.7
2017-Nov-19 10:30N 59°36' E 024°41'918.7
2017-Nov-19 10:00N 59°27' E 024°47'1 1.4
2017-Nov-19 09:31N 59°27' E 024°46'0 0.0
2017-Nov-19 08:58N 59°27' E 024°46'510.8
2017-Nov-19 08:31N 59°32' E 024°43'815.4
2017-Nov-19 08:01N 59°39' E 024°42'1019.0
2017-Nov-19 07:30N 59°48' E 024°48'918.9
2017-Nov-19 07:00N 59°57' E 024°53'1019.2
2017-Nov-19 06:31N 60°07' E 024°54'2 4.3
2017-Nov-19 06:00N 60°09' E 024°55'0 0.0
2017-Nov-19 05:30N 60°09' E 024°55'0 0.0
2017-Nov-19 05:00N 60°09' E 024°55'0 0.0
2017-Nov-19 04:30N 60°09' E 024°55'0 0.0
2017-Nov-19 04:00N 60°09' E 024°55'0 0.0
2017-Nov-19 03:30N 60°09' E 024°55'0 0.0
2017-Nov-19 03:00N 60°09' E 024°55'0 0.0
2017-Nov-19 02:30N 60°09' E 024°55'0 0.0
2017-Nov-19 02:00N 60°09' E 024°55'0 0.0
2017-Nov-19 01:30N 60°09' E 024°55'0 0.0
2017-Nov-19 01:00N 60°09' E 024°55'0 0.0
2017-Nov-19 00:30N 60°09' E 024°55'0 0.0
2017-Nov-19 00:00N 60°09' E 024°55'0 0.0
2017-Nov-18 23:30N 60°09' E 024°55'0 0.0
2017-Nov-18 23:00N 60°09' E 024°55'0 0.0
2017-Nov-18 22:30N 60°09' E 024°55'0 0.0
2017-Nov-18 22:00N 60°09' E 024°55'0 0.0
2017-Nov-18 21:30N 60°09' E 024°55'0 0.0
2017-Nov-18 21:00N 60°09' E 024°55'0 0.0
2017-Nov-18 20:30N 60°09' E 024°55'0 0.0
2017-Nov-18 19:54N 60°09' E 024°55'0 0.0
2017-Nov-18 19:30N 60°09' E 024°55'0 0.0
2017-Nov-18 19:00N 60°09' E 024°55'4 7.7
2017-Nov-18 18:30N 60°05' E 024°54'1019.6
2017-Nov-18 18:00N 59°55' E 024°52'1223.3
2017-Nov-18 17:30N 59°45' E 024°43'1019.9
2017-Nov-18 17:01N 59°35' E 024°42'816.4
2017-Nov-18 16:31N 59°27' E 024°46'0 0.4
2017-Nov-18 16:00N 59°27' E 024°46'0 0.0
2017-Nov-18 15:31N 59°27' E 024°46'816.0
2017-Nov-18 15:00N 59°34' E 024°41'918.9
2017-Nov-18 14:31N 59°43' E 024°47'1020.2
2017-Nov-18 14:00N 59°53' E 024°51'1121.2
2017-Nov-18 13:30N 60°04' E 024°54'510.7
2017-Nov-18 13:00N 60°09' E 024°55'0 0.0
2017-Nov-18 12:30N 60°09' E 024°55'0 1.0
2017-Nov-18 12:00N 60°09' E 024°54'918.9
2017-Nov-18 11:30N 59°59' E 024°54'1224.5
2017-Nov-18 11:01N 59°48' E 024°46'1121.1
2017-Nov-18 10:31N 59°38' E 024°41'1020.5
2017-Nov-18 10:00N 59°28' E 024°47'1 2.0
2017-Nov-18 09:29N 59°27' E 024°46'0 0.0
2017-Nov-18 09:00N 59°27' E 024°46'510.6
2017-Nov-18 08:30N 59°32' E 024°43'918.6
2017-Nov-18 08:00N 59°41' E 024°45'918.7
2017-Nov-18 07:31N 59°50' E 024°49'918.7
2017-Nov-18 07:00N 59°59' E 024°54'918.1
2017-Nov-18 06:30N 60°08' E 024°54'1 1.7
2017-Nov-18 05:59N 60°09' E 024°55'0 0.0
2017-Nov-18 05:29N 60°09' E 024°55'0 0.0
2017-Nov-18 04:59N 60°09' E 024°55'1 1.9
2017-Nov-18 04:30N 60°08' E 024°54'714.5
2017-Nov-18 04:01N 60°01' E 024°55'714.6
2017-Nov-18 03:31N 59°54' E 024°52'611.6
2017-Nov-18 03:00N 59°54' E 025°04'713.0
2017-Nov-18 02:30N 59°48' E 024°59'713.9
2017-Nov-18 02:01N 59°43' E 024°51'612.5
2017-Nov-18 01:31N 59°37' E 024°44'3 6.8
2017-Nov-18 01:01N 59°34' E 024°43'4 7.7
2017-Nov-18 00:31N 59°31' E 024°45'3 7.0
2017-Nov-18 00:01N 59°27' E 024°47'1 1.4
2017-Nov-17 23:31N 59°27' E 024°46'0 0.0
2017-Nov-17 23:01N 59°27' E 024°46'0 0.9
2017-Nov-17 22:31N 59°27' E 024°47'918.3
2017-Nov-17 22:01N 59°35' E 024°40'918.5
2017-Nov-17 21:31N 59°45' E 024°44'918.5
2017-Nov-17 21:00N 59°53' E 024°50'918.4
2017-Nov-17 20:31N 60°02' E 024°54'713.8
2017-Nov-17 20:00N 60°09' E 024°55'0 0.0
2017-Nov-17 19:26N 60°09' E 024°55'0 0.0
2017-Nov-17 19:01N 60°09' E 024°55'4 7.4
2017-Nov-17 18:30N 60°05' E 024°54'1020.1
2017-Nov-17 18:00N 59°55' E 024°53'1020.6
2017-Nov-17 17:31N 59°45' E 024°48'1020.7
2017-Nov-17 17:01N 59°36' E 024°42'918.1
2017-Nov-17 16:31N 59°27' E 024°46'0 0.5
2017-Nov-17 15:59N 59°27' E 024°46'0 0.0
2017-Nov-17 15:31N 59°27' E 024°46'612.9
2017-Nov-17 15:01N 59°33' E 024°42'1020.8
2017-Nov-17 14:31N 59°43' E 024°47'1222.7
2017-Nov-17 14:00N 59°54' E 024°52'1123.1
2017-Nov-17 13:30N 60°06' E 024°54'3 6.9
2017-Nov-17 13:00N 60°09' E 024°55'0 0.0
2017-Nov-17 12:31N 60°09' E 024°55'0 0.9
2017-Nov-17 12:00N 60°09' E 024°55'917.0
2017-Nov-17 11:30N 60°00' E 024°55'1122.7
2017-Nov-17 11:01N 59°49' E 024°47'1122.5
2017-Nov-17 10:31N 59°39' E 024°41'1121.9
2017-Nov-17 10:01N 59°28' E 024°46'1 2.7
2017-Nov-17 09:30N 59°27' E 024°46'0 0.0
2017-Nov-17 09:01N 59°27' E 024°46'3 5.5
2017-Nov-17 08:31N 59°29' E 024°45'917.2
2017-Nov-17 08:01N 59°38' E 024°41'917.5
2017-Nov-17 07:31N 59°46' E 024°48'1222.3
2017-Nov-17 06:59N 59°57' E 024°53'1122.3
2017-Nov-17 06:30N 60°08' E 024°54'1 2.5
2017-Nov-17 06:00N 60°09' E 024°55'0 0.0
2017-Nov-17 05:30N 60°09' E 024°55'0 0.0
2017-Nov-17 05:00N 60°09' E 024°55'1 1.1
2017-Nov-17 04:31N 60°09' E 024°55'713.8
2017-Nov-17 04:01N 60°02' E 024°55'713.6
2017-Nov-17 03:30N 59°55' E 024°60'3 6.6
2017-Nov-17 03:00N 59°54' E 024°54'4 8.3
2017-Nov-17 02:30N 59°51' E 024°47'5 9.3
2017-Nov-17 02:01N 59°47' E 024°48'5 9.4
2017-Nov-17 01:30N 59°42' E 024°46'5 9.7
2017-Nov-17 01:00N 59°38' E 024°42'4 8.8
2017-Nov-17 00:30N 59°33' E 024°43'5 9.3
2017-Nov-17 00:00N 59°29' E 024°46'2 4.6
2017-Nov-16 23:30N 59°27' E 024°46'0 0.0
2017-Nov-16 23:00N 59°27' E 024°46'1 1.6
2017-Nov-16 22:31N 59°27' E 024°47'1020.2
2017-Nov-16 22:01N 59°37' E 024°40'1019.1
2017-Nov-16 21:31N 59°45' E 024°48'1020.5
2017-Nov-16 21:00N 59°55' E 024°52'1020.0
2017-Nov-16 20:31N 60°05' E 024°54'4 7.3
2017-Nov-16 19:58N 60°09' E 024°55'0 0.0
2017-Nov-16 19:28N 60°09' E 024°55'0 0.0
2017-Nov-16 19:01N 60°09' E 024°55'4 8.5
2017-Nov-16 18:31N 60°05' E 024°54'1121.5
2017-Nov-16 18:00N 59°54' E 024°52'1122.1
2017-Nov-16 17:31N 59°43' E 024°47'1020.8
2017-Nov-16 17:01N 59°33' E 024°43'713.3
2017-Nov-16 16:30N 59°27' E 024°46'0 0.2
2017-Nov-16 15:59N 59°27' E 024°46'0 0.9
2017-Nov-16 15:31N 59°27' E 024°46'1020.3
2017-Nov-16 15:01N 59°36' E 024°40'1224.5
2017-Nov-16 14:31N 59°48' E 024°49'1325.5
2017-Nov-16 14:01N 60°00' E 024°54'917.4
2017-Nov-16 13:31N 60°09' E 024°55'0 0.1
2017-Nov-16 13:01N 60°09' E 024°55'0 0.0
2017-Nov-16 12:30N 60°09' E 024°55'0 0.4
2017-Nov-16 12:01N 60°09' E 024°55'815.2
2017-Nov-16 11:30N 60°01' E 024°55'1325.1
2017-Nov-16 11:01N 59°49' E 024°46'1325.0
2017-Nov-16 10:31N 59°37' E 024°41'1121.2
2017-Nov-16 10:00N 59°27' E 024°47'0 0.8
2017-Nov-16 09:28N 59°27' E 024°46'0 0.0
2017-Nov-16 08:59N 59°27' E 024°46'4 8.3
2017-Nov-16 08:30N 59°31' E 024°44'917.8
2017-Nov-16 08:00N 59°39' E 024°43'918.9
2017-Nov-16 07:31N 59°48' E 024°49'1019.0
2017-Nov-16 07:00N 59°58' E 024°53'918.5
2017-Nov-16 06:30N 60°07' E 024°54'2 4.3
2017-Nov-16 05:59N 60°09' E 024°55'0 0.0
2017-Nov-16 05:29N 60°09' E 024°55'0 0.0
2017-Nov-16 04:59N 60°09' E 024°55'1 1.3
2017-Nov-16 04:31N 60°09' E 024°54'713.6
2017-Nov-16 04:00N 60°02' E 024°55'714.7
2017-Nov-16 03:30N 59°55' E 024°58'3 5.8
2017-Nov-16 03:00N 59°53' E 025°03'714.4
2017-Nov-16 02:30N 59°53' E 024°48'510.1
2017-Nov-16 02:00N 59°49' E 024°41'611.3
2017-Nov-16 01:30N 59°44' E 024°41'511.0
2017-Nov-16 01:00N 59°38' E 024°41'510.4
2017-Nov-16 00:30N 59°33' E 024°43'4 8.9
2017-Nov-16 00:00N 59°29' E 024°46'2 4.4
2017-Nov-15 23:30N 59°27' E 024°46'0 0.0
2017-Nov-15 23:00N 59°27' E 024°46'0 0.5
2017-Nov-15 22:31N 59°27' E 024°46'815.4
2017-Nov-15 22:01N 59°34' E 024°41'816.6
2017-Nov-15 21:30N 59°42' E 024°41'816.1
2017-Nov-15 21:00N 59°50' E 024°47'816.3
2017-Nov-15 20:30N 59°57' E 024°53'816.6
2017-Nov-15 20:00N 60°06' E 024°54'4 6.6
2017-Nov-15 19:29N 60°09' E 024°55'0 0.0
2017-Nov-15 18:59N 60°09' E 024°55'2 4.2
2017-Nov-15 18:31N 60°07' E 024°54'1020.6
2017-Nov-15 18:01N 59°57' E 024°54'1223.1
2017-Nov-15 17:31N 59°46' E 024°48'1122.5
2017-Nov-15 17:01N 59°35' E 024°42'816.4
2017-Nov-15 16:30N 59°27' E 024°46'0 0.3
2017-Nov-15 15:59N 59°27' E 024°46'0 0.0
2017-Nov-15 15:30N 59°27' E 024°46'4 7.5
2017-Nov-15 15:00N 59°30' E 024°44'1122.6
2017-Nov-15 14:31N 59°41' E 024°40'1223.7
2017-Nov-15 14:01N 59°52' E 024°49'1223.4
2017-Nov-15 13:30N 60°04' E 024°54'510.7
2017-Nov-15 13:00N 60°09' E 024°55'0 0.0
2017-Nov-15 12:30N 60°09' E 024°55'0 0.6
2017-Nov-15 12:01N 60°09' E 024°55'815.1
2017-Nov-15 11:30N 60°01' E 024°54'1225.0
2017-Nov-15 11:01N 59°49' E 024°47'1325.1
2017-Nov-15 10:31N 59°37' E 024°41'1121.2
2017-Nov-15 10:01N 59°27' E 024°46'0 0.7
2017-Nov-15 09:29N 59°27' E 024°46'0 0.0
2017-Nov-15 08:59N 59°27' E 024°46'4 7.9
2017-Nov-15 08:30N 59°30' E 024°44'1019.2
2017-Nov-15 08:00N 59°40' E 024°43'1020.4
2017-Nov-15 07:31N 59°49' E 024°51'1020.5
2017-Nov-15 07:01N 59°59' E 024°54'918.5
2017-Nov-15 06:30N 60°09' E 024°55'0 0.8
2017-Nov-15 06:00N 60°09' E 024°55'0 0.0
2017-Nov-15 05:30N 60°09' E 024°55'0 0.0
2017-Nov-15 04:59N 60°09' E 024°55'0 0.0
2017-Nov-15 04:27N 60°09' E 024°55'  
Track history (hours):
 
Tides and Currents Weather Stations Pressure Air Temp Water Temp Dewpoint Dewpoint Depression Visibility Wind Speed Wind Dir Waves Ship Positions

Finlandia

Last reported at 2017-Nov-25 04:00 UTC. Time now 2017-Nov-25 04:19 UTC.
Position N 60°01' E 024°55'.

Length 175 m; draft 7 m.

Type: Passenger vessel. MMSI: 230628000.

Date/timePositionNaut miles runAvg speedWind from/ knotsBaromVisibWave heightAir tempDewpointWater temp
2017-Nov-25 04:00N 60°01' E 024°55'713.8
2017-Nov-25 03:31N 59°55' E 024°52'612.0
2017-Nov-25 03:00N 59°49' E 024°51'4 7.4
2017-Nov-25 02:30N 59°45' E 024°54'3 5.3
2017-Nov-25 02:00N 59°43' E 024°57'510.9
2017-Nov-25 01:30N 59°41' E 024°47'4 8.1
2017-Nov-25 01:00N 59°38' E 024°42'4 7.2
2017-Nov-25 00:30N 59°34' E 024°42'4 9.0
2017-Nov-25 00:00N 59°30' E 024°46'3 6.4
2017-Nov-24 23:30N 59°27' E 024°46'0 0.4
2017-Nov-24 23:00N 59°27' E 024°46'1 1.2
2017-Nov-24 22:30N 59°27' E 024°47'917.1
2017-Nov-24 22:01N 59°35' E 024°40'1019.6
2017-Nov-24 21:30N 59°45' E 024°44'816.5
2017-Nov-24 21:00N 59°52' E 024°51'918.0
2017-Nov-24 20:31N 60°01' E 024°54'815.7
2017-Nov-24 20:01N 60°09' E 024°55'0 0.4
2017-Nov-24 19:29N 60°09' E 024°55'0 0.0
2017-Nov-24 19:00N 60°09' E 024°55'4 7.9
2017-Nov-24 18:30N 60°05' E 024°54'1019.8
2017-Nov-24 18:00N 59°55' E 024°53'1020.2
2017-Nov-24 17:30N 59°46' E 024°48'1020.3
2017-Nov-24 17:00N 59°36' E 024°41'918.5
2017-Nov-24 16:31N 59°27' E 024°47'1 1.3
2017-Nov-24 16:00N 59°27' E 024°46'0 0.0
2017-Nov-24 15:30N 59°27' E 024°46'816.3
2017-Nov-24 15:00N 59°34' E 024°41'1121.1
2017-Nov-24 14:30N 59°45' E 024°47'1020.1
2017-Nov-24 14:00N 59°54' E 024°52'1122.1
2017-Nov-24 13:30N 60°05' E 024°53'4 7.6
2017-Nov-24 13:00N 60°09' E 024°55'0 0.0
2017-Nov-24 12:28N 60°09' E 024°55'0 0.5
2017-Nov-24 12:00N 60°09' E 024°55'815.9
2017-Nov-24 11:31N 60°01' E 024°54'1326.7
2017-Nov-24 11:00N 59°48' E 024°45'1122.1
2017-Nov-24 10:31N 59°38' E 024°41'1121.6
2017-Nov-24 10:00N 59°27' E 024°47'1 1.2
2017-Nov-24 09:29N 59°27' E 024°46'0 0.0
2017-Nov-24 08:59N 59°27' E 024°46'4 8.5
2017-Nov-24 08:30N 59°31' E 024°44'918.0
2017-Nov-24 08:00N 59°40' E 024°43'1020.3
2017-Nov-24 07:31N 59°49' E 024°49'917.6
2017-Nov-24 07:00N 59°58' E 024°54'918.8
2017-Nov-24 06:30N 60°07' E 024°54'2 3.6
2017-Nov-24 05:59N 60°09' E 024°55'0 0.0
2017-Nov-24 05:29N 60°09' E 024°55'0 0.0
2017-Nov-24 04:59N 60°09' E 024°55'1 1.3
2017-Nov-24 04:31N 60°09' E 024°54'815.2
2017-Nov-24 04:01N 60°01' E 024°55'714.0
2017-Nov-24 03:31N 59°54' E 024°51'713.3
2017-Nov-24 03:01N 59°49' E 024°43'5 9.9
2017-Nov-24 02:30N 59°44' E 024°41'713.3
2017-Nov-24 02:01N 59°45' E 024°54'2 4.4
2017-Nov-24 01:31N 59°43' E 024°52'612.9
2017-Nov-24 01:00N 59°38' E 024°43'5 9.8
2017-Nov-24 00:31N 59°33' E 024°43'5 9.2
2017-Nov-24 00:00N 59°29' E 024°46'2 4.6
2017-Nov-23 23:31N 59°27' E 024°46'0 0.0
2017-Nov-23 23:00N 59°27' E 024°46'1 1.6
2017-Nov-23 22:31N 59°27' E 024°47'917.1
2017-Nov-23 22:00N 59°35' E 024°40'917.1
2017-Nov-23 21:30N 59°44' E 024°43'917.5
2017-Nov-23 21:00N 59°52' E 024°49'918.0
2017-Nov-23 20:30N 60°00' E 024°54'816.2
2017-Nov-23 20:00N 60°09' E 024°54'1 1.1
2017-Nov-23 19:29N 60°09' E 024°55'0 0.0
2017-Nov-23 19:01N 60°09' E 024°55'2 4.7
2017-Nov-23 18:30N 60°07' E 024°54'1020.3
2017-Nov-23 18:01N 59°57' E 024°54'1122.9
2017-Nov-23 17:31N 59°45' E 024°48'1122.4
2017-Nov-23 17:01N 59°35' E 024°42'816.2
2017-Nov-23 16:30N 59°27' E 024°46'0 0.5
2017-Nov-23 16:00N 59°27' E 024°46'0 0.0
2017-Nov-23 15:31N 59°27' E 024°46'714.8
2017-Nov-23 15:01N 59°34' E 024°42'1223.4
2017-Nov-23 14:31N 59°45' E 024°48'1224.8
2017-Nov-23 14:00N 59°57' E 024°53'1122.1
2017-Nov-23 13:30N 60°08' E 024°54'1 1.7
2017-Nov-23 12:59N 60°09' E 024°55'0 0.0
2017-Nov-23 12:29N 60°09' E 024°55'1 1.4
2017-Nov-23 12:00N 60°08' E 024°54'1019.2
2017-Nov-23 11:31N 59°59' E 024°54'1223.2
2017-Nov-23 11:01N 59°48' E 024°46'1223.2
2017-Nov-23 10:31N 59°37' E 024°41'1020.5
2017-Nov-23 10:00N 59°27' E 024°46'0 0.6
2017-Nov-23 09:29N 59°27' E 024°46'0 0.0
2017-Nov-23 08:59N 59°27' E 024°46'2 5.1
2017-Nov-23 08:31N 59°29' E 024°45'1121.4
2017-Nov-23 08:01N 59°39' E 024°40'1121.8
2017-Nov-23 07:30N 59°50' E 024°48'1121.3
2017-Nov-23 07:00N 59°60' E 024°54'917.7
2017-Nov-23 06:30N 60°09' E 024°55'0 0.7
2017-Nov-23 06:00N 60°09' E 024°55'0 0.0
2017-Nov-23 05:31N 60°09' E 024°55'0 0.0
2017-Nov-23 05:00N 60°09' E 024°55'1 1.0
2017-Nov-23 04:31N 60°09' E 024°54'713.9
2017-Nov-23 04:00N 60°02' E 024°55'611.8
2017-Nov-23 03:30N 59°56' E 024°52'4 8.0
2017-Nov-23 03:00N 59°52' E 024°50'4 8.1
2017-Nov-23 02:30N 59°48' E 024°47'4 8.5
2017-Nov-23 02:00N 59°45' E 024°43'4 8.4
2017-Nov-23 01:30N 59°41' E 024°41'4 8.6
2017-Nov-23 01:00N 59°36' E 024°41'4 8.3
2017-Nov-23 00:30N 59°32' E 024°44'4 8.8
2017-Nov-23 00:00N 59°28' E 024°46'1 3.0
2017-Nov-22 23:30N 59°27' E 024°46'0 0.0
2017-Nov-22 23:00N 59°27' E 024°46'1 1.4
2017-Nov-22 22:31N 59°27' E 024°47'816.0
2017-Nov-22 22:01N 59°34' E 024°41'917.8
2017-Nov-22 21:31N 59°43' E 024°42'918.7
2017-Nov-22 21:01N 59°52' E 024°49'918.8
2017-Nov-22 20:31N 60°01' E 024°54'815.5
2017-Nov-22 20:00N 60°09' E 024°55'0 0.5
2017-Nov-22 19:30N 60°09' E 024°55'  
2017-Nov-20 00:30N 60°09' E 024°55'0 0.0
2017-Nov-20 00:00N 60°09' E 024°55'0 0.0
2017-Nov-19 23:30N 60°09' E 024°55'0 0.0
2017-Nov-19 23:00N 60°09' E 024°55'0 0.0
2017-Nov-19 22:30N 60°09' E 024°55'0 0.0
2017-Nov-19 22:00N 60°09' E 024°55'0 0.0
2017-Nov-19 21:30N 60°09' E 024°55'0 0.0
2017-Nov-19 21:00N 60°09' E 024°55'0 0.0
2017-Nov-19 20:30N 60°09' E 024°55'0 0.0
2017-Nov-19 20:00N 60°09' E 024°55'0 0.0
2017-Nov-19 19:30N 60°09' E 024°55'0 0.0
2017-Nov-19 19:00N 60°09' E 024°55'4 8.4
2017-Nov-19 18:31N 60°05' E 024°54'1020.0
2017-Nov-19 18:00N 59°55' E 024°53'1020.9
2017-Nov-19 17:30N 59°45' E 024°49'1019.5
2017-Nov-19 17:01N 59°36' E 024°41'918.3
2017-Nov-19 16:30N 59°27' E 024°46'0 0.4
2017-Nov-19 15:58N 59°27' E 024°46'0 0.0
2017-Nov-19 15:29N 59°27' E 024°46'816.1
2017-Nov-19 15:01N 59°34' E 024°41'918.2
2017-Nov-19 14:31N 59°43' E 024°47'1223.1
2017-Nov-19 14:01N 59°54' E 024°54'1223.1
2017-Nov-19 13:30N 60°05' E 024°58'4 8.7
2017-Nov-19 13:00N 60°09' E 024°55'0 0.0
2017-Nov-19 12:30N 60°09' E 024°55'0 1.0
2017-Nov-19 12:01N 60°09' E 024°55'1019.1
2017-Nov-19 11:31N 59°59' E 024°54'1122.4
2017-Nov-19 11:01N 59°48' E 024°50'1325.7
2017-Nov-19 10:30N 59°36' E 024°41'918.7
2017-Nov-19 10:00N 59°27' E 024°47'1 1.4
2017-Nov-19 09:31N 59°27' E 024°46'0 0.0
2017-Nov-19 08:58N 59°27' E 024°46'510.8
2017-Nov-19 08:31N 59°32' E 024°43'815.4
2017-Nov-19 08:01N 59°39' E 024°42'1019.0
2017-Nov-19 07:30N 59°48' E 024°48'918.9
2017-Nov-19 07:00N 59°57' E 024°53'1019.2
2017-Nov-19 06:31N 60°07' E 024°54'2 4.3
2017-Nov-19 06:00N 60°09' E 024°55'0 0.0
2017-Nov-19 05:30N 60°09' E 024°55'0 0.0
2017-Nov-19 05:00N 60°09' E 024°55'0 0.0
2017-Nov-19 04:30N 60°09' E 024°55'0 0.0
2017-Nov-19 04:00N 60°09' E 024°55'0 0.0
2017-Nov-19 03:30N 60°09' E 024°55'0 0.0
2017-Nov-19 03:00N 60°09' E 024°55'0 0.0
2017-Nov-19 02:30N 60°09' E 024°55'0 0.0
2017-Nov-19 02:00N 60°09' E 024°55'0 0.0
2017-Nov-19 01:30N 60°09' E 024°55'0 0.0
2017-Nov-19 01:00N 60°09' E 024°55'0 0.0
2017-Nov-19 00:30N 60°09' E 024°55'0 0.0
2017-Nov-19 00:00N 60°09' E 024°55'0 0.0
2017-Nov-18 23:30N 60°09' E 024°55'0 0.0
2017-Nov-18 23:00N 60°09' E 024°55'0 0.0
2017-Nov-18 22:30N 60°09' E 024°55'0 0.0
2017-Nov-18 22:00N 60°09' E 024°55'0 0.0
2017-Nov-18 21:30N 60°09' E 024°55'0 0.0
2017-Nov-18 21:00N 60°09' E 024°55'0 0.0
2017-Nov-18 20:30N 60°09' E 024°55'0 0.0
2017-Nov-18 19:54N 60°09' E 024°55'0 0.0
2017-Nov-18 19:30N 60°09' E 024°55'0 0.0
2017-Nov-18 19:00N 60°09' E 024°55'4 7.7
2017-Nov-18 18:30N 60°05' E 024°54'1019.6
2017-Nov-18 18:00N 59°55' E 024°52'1223.3
2017-Nov-18 17:30N 59°45' E 024°43'1019.9
2017-Nov-18 17:01N 59°35' E 024°42'816.4
2017-Nov-18 16:31N 59°27' E 024°46'0 0.4
2017-Nov-18 16:00N 59°27' E 024°46'0 0.0
2017-Nov-18 15:31N 59°27' E 024°46'816.0
2017-Nov-18 15:00N 59°34' E 024°41'918.9
2017-Nov-18 14:31N 59°43' E 024°47'1020.2
2017-Nov-18 14:00N 59°53' E 024°51'1121.2
2017-Nov-18 13:30N 60°04' E 024°54'510.7
2017-Nov-18 13:00N 60°09' E 024°55'0 0.0
2017-Nov-18 12:30N 60°09' E 024°55'0 1.0
2017-Nov-18 12:00N 60°09' E 024°54'918.9
2017-Nov-18 11:30N 59°59' E 024°54'1224.5
2017-Nov-18 11:01N 59°48' E 024°46'1121.1
2017-Nov-18 10:31N 59°38' E 024°41'1020.5
2017-Nov-18 10:00N 59°28' E 024°47'1 2.0
2017-Nov-18 09:29N 59°27' E 024°46'0 0.0
2017-Nov-18 09:00N 59°27' E 024°46'510.6
2017-Nov-18 08:30N 59°32' E 024°43'918.6
2017-Nov-18 08:00N 59°41' E 024°45'918.7
2017-Nov-18 07:31N 59°50' E 024°49'918.7
2017-Nov-18 07:00N 59°59' E 024°54'918.1
2017-Nov-18 06:30N 60°08' E 024°54'1 1.7
2017-Nov-18 05:59N 60°09' E 024°55'0 0.0
2017-Nov-18 05:29N 60°09' E 024°55'0 0.0
2017-Nov-18 04:59N 60°09' E 024°55'1 1.9
2017-Nov-18 04:30N 60°08' E 024°54'714.5
2017-Nov-18 04:01N 60°01' E 024°55'714.6
2017-Nov-18 03:31N 59°54' E 024°52'611.6
2017-Nov-18 03:00N 59°54' E 025°04'713.0
2017-Nov-18 02:30N 59°48' E 024°59'713.9
2017-Nov-18 02:01N 59°43' E 024°51'612.5
2017-Nov-18 01:31N 59°37' E 024°44'3 6.8
2017-Nov-18 01:01N 59°34' E 024°43'4 7.7
2017-Nov-18 00:31N 59°31' E 024°45'3 7.0
2017-Nov-18 00:01N 59°27' E 024°47'1 1.4
2017-Nov-17 23:31N 59°27' E 024°46'0 0.0
2017-Nov-17 23:01N 59°27' E 024°46'0 0.9
2017-Nov-17 22:31N 59°27' E 024°47'918.3
2017-Nov-17 22:01N 59°35' E 024°40'918.5
2017-Nov-17 21:31N 59°45' E 024°44'918.5
2017-Nov-17 21:00N 59°53' E 024°50'918.4
2017-Nov-17 20:31N 60°02' E 024°54'713.8
2017-Nov-17 20:00N 60°09' E 024°55'0 0.0
2017-Nov-17 19:26N 60°09' E 024°55'0 0.0
2017-Nov-17 19:01N 60°09' E 024°55'4 7.4
2017-Nov-17 18:30N 60°05' E 024°54'1020.1
2017-Nov-17 18:00N 59°55' E 024°53'1020.6
2017-Nov-17 17:31N 59°45' E 024°48'1020.7
2017-Nov-17 17:01N 59°36' E 024°42'918.1
2017-Nov-17 16:31N 59°27' E 024°46'0 0.5
2017-Nov-17 15:59N 59°27' E 024°46'0 0.0
2017-Nov-17 15:31N 59°27' E 024°46'612.9
2017-Nov-17 15:01N 59°33' E 024°42'1020.8
2017-Nov-17 14:31N 59°43' E 024°47'1222.7
2017-Nov-17 14:00N 59°54' E 024°52'1123.1
2017-Nov-17 13:30N 60°06' E 024°54'3 6.9
2017-Nov-17 13:00N 60°09' E 024°55'0 0.0
2017-Nov-17 12:31N 60°09' E 024°55'0 0.9
2017-Nov-17 12:00N 60°09' E 024°55'917.0
2017-Nov-17 11:30N 60°00' E 024°55'1122.7
2017-Nov-17 11:01N 59°49' E 024°47'1122.5
2017-Nov-17 10:31N 59°39' E 024°41'1121.9
2017-Nov-17 10:01N 59°28' E 024°46'1 2.7
2017-Nov-17 09:30N 59°27' E 024°46'0 0.0
2017-Nov-17 09:01N 59°27' E 024°46'3 5.5
2017-Nov-17 08:31N 59°29' E 024°45'917.2
2017-Nov-17 08:01N 59°38' E 024°41'917.5
2017-Nov-17 07:31N 59°46' E 024°48'1222.3
2017-Nov-17 06:59N 59°57' E 024°53'1122.3
2017-Nov-17 06:30N 60°08' E 024°54'1 2.5
2017-Nov-17 06:00N 60°09' E 024°55'0 0.0
2017-Nov-17 05:30N 60°09' E 024°55'0 0.0
2017-Nov-17 05:00N 60°09' E 024°55'1 1.1
2017-Nov-17 04:31N 60°09' E 024°55'713.8
2017-Nov-17 04:01N 60°02' E 024°55'713.6
2017-Nov-17 03:30N 59°55' E 024°60'3 6.6
2017-Nov-17 03:00N 59°54' E 024°54'4 8.3
2017-Nov-17 02:30N 59°51' E 024°47'5 9.3
2017-Nov-17 02:01N 59°47' E 024°48'5 9.4
2017-Nov-17 01:30N 59°42' E 024°46'5 9.7
2017-Nov-17 01:00N 59°38' E 024°42'4 8.8
2017-Nov-17 00:30N 59°33' E 024°43'5 9.3
2017-Nov-17 00:00N 59°29' E 024°46'2 4.6
2017-Nov-16 23:30N 59°27' E 024°46'0 0.0
2017-Nov-16 23:00N 59°27' E 024°46'1 1.6
2017-Nov-16 22:31N 59°27' E 024°47'1020.2
2017-Nov-16 22:01N 59°37' E 024°40'1019.1
2017-Nov-16 21:31N 59°45' E 024°48'1020.5
2017-Nov-16 21:00N 59°55' E 024°52'1020.0
2017-Nov-16 20:31N 60°05' E 024°54'4 7.3
2017-Nov-16 19:58N 60°09' E 024°55'0 0.0
2017-Nov-16 19:28N 60°09' E 024°55'0 0.0
2017-Nov-16 19:01N 60°09' E 024°55'4 8.5
2017-Nov-16 18:31N 60°05' E 024°54'1121.5
2017-Nov-16 18:00N 59°54' E 024°52'1122.1
2017-Nov-16 17:31N 59°43' E 024°47'1020.8
2017-Nov-16 17:01N 59°33' E 024°43'713.3
2017-Nov-16 16:30N 59°27' E 024°46'0 0.2
2017-Nov-16 15:59N 59°27' E 024°46'0 0.9
2017-Nov-16 15:31N 59°27' E 024°46'1020.3
2017-Nov-16 15:01N 59°36' E 024°40'1224.5
2017-Nov-16 14:31N 59°48' E 024°49'1325.5
2017-Nov-16 14:01N 60°00' E 024°54'917.4
2017-Nov-16 13:31N 60°09' E 024°55'0 0.1
2017-Nov-16 13:01N 60°09' E 024°55'0 0.0
2017-Nov-16 12:30N 60°09' E 024°55'0 0.4
2017-Nov-16 12:01N 60°09' E 024°55'815.2
2017-Nov-16 11:30N 60°01' E 024°55'1325.1
2017-Nov-16 11:01N 59°49' E 024°46'1325.0
2017-Nov-16 10:31N 59°37' E 024°41'1121.2
2017-Nov-16 10:00N 59°27' E 024°47'0 0.8
2017-Nov-16 09:28N 59°27' E 024°46'0 0.0
2017-Nov-16 08:59N 59°27' E 024°46'4 8.3
2017-Nov-16 08:30N 59°31' E 024°44'917.8
2017-Nov-16 08:00N 59°39' E 024°43'918.9
2017-Nov-16 07:31N 59°48' E 024°49'1019.0
2017-Nov-16 07:00N 59°58' E 024°53'918.5
2017-Nov-16 06:30N 60°07' E 024°54'2 4.3
2017-Nov-16 05:59N 60°09' E 024°55'0 0.0
2017-Nov-16 05:29N 60°09' E 024°55'0 0.0
2017-Nov-16 04:59N 60°09' E 024°55'1 1.3
2017-Nov-16 04:31N 60°09' E 024°54'713.6
2017-Nov-16 04:00N 60°02' E 024°55'714.7
2017-Nov-16 03:30N 59°55' E 024°58'3 5.8
2017-Nov-16 03:00N 59°53' E 025°03'714.4
2017-Nov-16 02:30N 59°53' E 024°48'510.1
2017-Nov-16 02:00N 59°49' E 024°41'611.3
2017-Nov-16 01:30N 59°44' E 024°41'511.0
2017-Nov-16 01:00N 59°38' E 024°41'510.4
2017-Nov-16 00:30N 59°33' E 024°43'4 8.9
2017-Nov-16 00:00N 59°29' E 024°46'2 4.4
2017-Nov-15 23:30N 59°27' E 024°46'0 0.0
2017-Nov-15 23:00N 59°27' E 024°46'0 0.5
2017-Nov-15 22:31N 59°27' E 024°46'815.4
2017-Nov-15 22:01N 59°34' E 024°41'816.6
2017-Nov-15 21:30N 59°42' E 024°41'816.1
2017-Nov-15 21:00N 59°50' E 024°47'816.3
2017-Nov-15 20:30N 59°57' E 024°53'816.6
2017-Nov-15 20:00N 60°06' E 024°54'4 6.6
2017-Nov-15 19:29N 60°09' E 024°55'0 0.0
2017-Nov-15 18:59N 60°09' E 024°55'2 4.2
2017-Nov-15 18:31N 60°07' E 024°54'1020.6
2017-Nov-15 18:01N 59°57' E 024°54'1223.1
2017-Nov-15 17:31N 59°46' E 024°48'1122.5
2017-Nov-15 17:01N 59°35' E 024°42'816.4
2017-Nov-15 16:30N 59°27' E 024°46'0 0.3
2017-Nov-15 15:59N 59°27' E 024°46'0 0.0
2017-Nov-15 15:30N 59°27' E 024°46'4 7.5
2017-Nov-15 15:00N 59°30' E 024°44'1122.6
2017-Nov-15 14:31N 59°41' E 024°40'1223.7
2017-Nov-15 14:01N 59°52' E 024°49'1223.4
2017-Nov-15 13:30N 60°04' E 024°54'510.7
2017-Nov-15 13:00N 60°09' E 024°55'0 0.0
2017-Nov-15 12:30N 60°09' E 024°55'0 0.6
2017-Nov-15 12:01N 60°09' E 024°55'815.1
2017-Nov-15 11:30N 60°01' E 024°54'1225.0
2017-Nov-15 11:01N 59°49' E 024°47'1325.1
2017-Nov-15 10:31N 59°37' E 024°41'1121.2
2017-Nov-15 10:01N 59°27' E 024°46'0 0.7
2017-Nov-15 09:29N 59°27' E 024°46'0 0.0
2017-Nov-15 08:59N 59°27' E 024°46'4 7.9
2017-Nov-15 08:30N 59°30' E 024°44'1019.2
2017-Nov-15 08:00N 59°40' E 024°43'1020.4
2017-Nov-15 07:31N 59°49' E 024°51'1020.5
2017-Nov-15 07:01N 59°59' E 024°54'918.5
2017-Nov-15 06:30N 60°09' E 024°55'0 0.8
2017-Nov-15 06:00N 60°09' E 024°55'0 0.0
2017-Nov-15 05:30N 60°09' E 024°55'0 0.0
2017-Nov-15 04:59N 60°09' E 024°55'0 0.0
2017-Nov-15 04:27N 60°09' E 024°55'  

Dump ship's entire track history